Topley, Canada
Current Conditions -  °F | °C
As of 4:00 AM on Monday 20 Oct 2014 (Local Time) from CYYD Reporting Station
Overcast Overcast  
Wind Chill: 41°   Ceiling: 6000
Heat Index: 45°   Visibility: 9mi
Dew Point: 41°   Wind: 6mph
Humidity: 87%   Direction: 120°ESE
Pressure: 29.45"   Gusts: NA
Location:  54.52°N, 126.3°W
Report Text: CYYD 201100Z AUTO 12005KT 9SM BKN060 OVC076 07/05 A2945 RMK SLP978
Loading
Personal Weather Stations






























Interactive Weather Map
Tropical Storm Tracking
New forecast layout! Learn more

10-Day Weather Forecast

Advertisements
Track Severe Weather on mobile